createdAt,value
2019-02-19T04:54:20.740Z,100767.81
2019-02-19T04:56:51.314Z,100764.45
2019-02-19T04:59:21.732Z,100757.93
2019-02-19T05:01:52.141Z,100764.80
2019-02-19T05:04:23.175Z,100760.64
2019-02-19T05:06:53.588Z,100755.47
2019-02-19T05:09:23.992Z,100757.27
2019-02-19T05:11:54.385Z,100756.42
2019-02-19T05:14:24.783Z,100742.49
2019-02-19T05:16:55.197Z,100749.17
2019-02-19T05:19:25.670Z,100747.09
2019-02-19T05:21:56.072Z,100736.01
2019-02-19T05:24:28.198Z,100740.33
2019-02-19T05:26:58.633Z,100737.59
2019-02-19T05:29:32.270Z,100737.56
2019-02-19T05:32:03.023Z,100742.19
2019-02-19T05:34:33.486Z,100731.03
2019-02-19T05:37:04.336Z,100734.84
2019-02-19T05:39:34.897Z,100732.44
2019-02-19T05:42:05.399Z,100737.58
2019-02-19T05:44:35.821Z,100735.16
2019-02-19T05:47:06.255Z,100735.61
2019-02-19T05:49:36.695Z,100740.89
2019-02-19T05:52:07.137Z,100742.67
2019-02-19T05:54:37.639Z,100736.58
2019-02-19T05:57:08.071Z,100738.77
2019-02-19T05:59:38.498Z,100741.23
2019-02-19T06:02:09.034Z,100748.87
2019-02-19T06:04:39.562Z,100748.86
2019-02-19T06:07:10.601Z,100747.29
2019-02-19T06:09:40.999Z,100745.71
2019-02-19T06:12:11.402Z,100746.02
2019-02-19T06:14:42.144Z,100740.09
2019-02-19T06:17:12.542Z,100743.86
2019-02-19T06:19:42.944Z,100744.60
2019-02-19T06:22:13.350Z,100752.91
2019-02-19T06:24:43.755Z,100751.00
2019-02-19T06:27:14.225Z,100749.23
2019-02-19T06:29:44.631Z,100749.52
2019-02-19T06:32:15.031Z,100752.13
2019-02-19T06:34:45.510Z,100756.76
2019-02-19T06:37:16.000Z,100753.26
2019-02-19T06:39:46.408Z,100757.17
2019-02-19T06:42:16.895Z,100760.45
2019-02-19T06:44:47.304Z,100757.66
2019-02-19T06:47:19.416Z,100763.77
2019-02-19T06:49:49.899Z,100761.09
2019-02-19T06:52:20.287Z,100756.45
2019-02-19T06:54:50.794Z,100762.09
2019-02-19T06:57:21.212Z,100758.59
2019-02-19T06:59:52.728Z,100757.09
2019-02-19T07:02:30.902Z,100761.20
2019-02-19T07:05:01.920Z,100759.65
2019-02-19T07:07:32.453Z,100762.44
2019-02-19T07:10:02.922Z,100766.27
2019-02-19T07:12:33.508Z,100758.66
2019-02-19T07:15:04.555Z,100758.13
2019-02-19T07:17:36.416Z,100752.30
2019-02-19T07:20:09.195Z,100751.62
2019-02-19T07:22:39.722Z,100755.02
2019-02-19T07:25:12.220Z,100757.17
2019-02-19T07:27:42.737Z,100757.22
2019-02-19T07:30:13.322Z,100753.61
2019-02-19T07:32:43.899Z,100747.53
2019-02-19T07:35:14.293Z,100752.53
2019-02-19T07:37:44.751Z,100742.70
2019-02-19T07:40:15.159Z,100752.08
2019-02-19T07:42:45.709Z,100753.75
2019-02-19T07:45:16.143Z,100754.72
2019-02-19T07:47:46.681Z,100753.16
2019-02-19T07:50:17.827Z,100750.67
2019-02-19T07:52:48.241Z,100747.45
2019-02-19T07:55:18.671Z,100746.00
2019-02-19T07:57:49.067Z,100748.81
2019-02-19T08:00:19.469Z,100743.39
2019-02-19T08:02:49.956Z,100740.66
2019-02-19T08:05:20.485Z,100742.22
2019-02-19T08:07:50.920Z,100747.12
2019-02-19T08:10:21.448Z,100744.15
2019-02-19T08:12:51.977Z,100746.72
2019-02-19T08:15:22.367Z,100741.66
2019-02-19T08:17:52.831Z,100749.28
2019-02-19T08:20:23.226Z,100743.28
2019-02-19T08:22:53.685Z,100749.67
2019-02-19T08:25:24.116Z,100751.86
2019-02-19T08:27:54.643Z,100754.51
2019-02-19T08:30:25.058Z,100753.97
2019-02-19T08:32:56.623Z,100753.45
2019-02-19T08:35:27.058Z,100759.53
2019-02-19T08:37:57.478Z,100748.52
2019-02-19T08:40:27.911Z,100741.14
2019-02-19T08:43:00.241Z,100748.63
2019-02-19T08:45:35.895Z,100748.28
2019-02-19T08:48:06.308Z,100733.93
2019-02-19T08:50:36.698Z,100728.66
2019-02-19T08:53:07.116Z,100736.67
2019-02-19T08:55:37.573Z,100742.03
2019-02-19T08:58:08.126Z,100730.60
2019-02-19T09:00:38.650Z,100736.19
2019-02-19T09:03:09.087Z,100742.20
2019-02-19T09:05:39.520Z,100742.64
2019-02-19T09:08:09.989Z,100743.42
2019-02-19T09:10:40.786Z,100740.91
2019-02-19T09:13:11.515Z,100740.55
2019-02-19T09:15:41.923Z,100747.38
2019-02-19T09:18:12.479Z,100737.27
2019-02-19T09:20:42.942Z,100737.48
2019-02-19T09:23:13.334Z,100744.00
2019-02-19T09:25:43.767Z,100744.52
2019-02-19T09:28:14.163Z,100746.77
2019-02-19T09:30:44.672Z,100744.31
2019-02-19T09:33:15.076Z,100742.89
2019-02-19T09:35:45.581Z,100745.89
2019-02-19T09:38:17.131Z,100746.20
2019-02-19T09:40:47.596Z,100746.67
2019-02-19T09:43:17.997Z,100753.30
2019-02-19T09:45:48.525Z,100754.91
2019-02-19T09:48:18.918Z,100756.28
2019-02-19T09:50:49.314Z,100753.76
2019-02-19T09:53:19.799Z,100754.44
2019-02-19T09:55:50.209Z,100748.27
2019-02-19T09:58:20.760Z,100746.66
2019-02-19T10:00:51.192Z,100744.53
2019-02-19T10:03:21.672Z,100751.74
2019-02-19T10:05:52.144Z,100751.55
2019-02-19T10:08:22.575Z,100752.71
2019-02-19T10:10:53.008Z,100758.89
2019-02-19T10:13:25.130Z,100760.61
2019-02-19T10:15:55.642Z,100755.96
2019-02-19T10:18:26.042Z,100757.20
2019-02-19T10:20:56.577Z,100758.09
2019-02-19T10:23:27.296Z,100752.81
2019-02-19T10:25:57.733Z,100750.58
2019-02-19T10:28:28.159Z,100751.80
2019-02-19T10:31:53.473Z,100748.59
2019-02-19T10:34:41.710Z,100749.77
2019-02-19T10:37:12.109Z,100744.20
2019-02-19T10:39:42.572Z,100742.24
2019-02-19T10:42:13.994Z,100747.41
2019-02-19T10:44:44.430Z,100747.69
2019-02-19T10:47:14.842Z,100749.89
2019-02-19T10:49:45.317Z,100751.28
2019-02-19T10:52:15.706Z,100745.41
2019-02-19T10:54:46.371Z,100738.27
2019-02-19T10:57:16.782Z,100739.28
2019-02-19T10:59:47.322Z,100738.36
2019-02-19T11:02:17.755Z,100729.39
2019-02-19T11:04:48.158Z,100721.34
2019-02-19T11:07:18.636Z,100721.17
2019-02-19T11:09:49.139Z,100721.94
2019-02-19T11:12:19.539Z,100721.70
2019-02-19T11:14:51.235Z,100721.18
2019-02-19T11:17:21.763Z,100710.89
2019-02-19T11:19:52.231Z,100707.25
2019-02-19T11:22:22.645Z,100704.58
2019-02-19T11:24:53.152Z,100708.59
2019-02-19T11:27:23.582Z,100698.83
2019-02-19T11:29:54.001Z,100705.16
2019-02-19T11:32:26.285Z,100706.31
2019-02-19T11:34:58.013Z,100706.70
2019-02-19T11:37:28.417Z,100718.03
2019-02-19T11:39:58.814Z,100719.47
2019-02-19T11:42:29.210Z,100712.05
2019-02-19T11:44:59.622Z,100720.83
2019-02-19T11:47:30.049Z,100718.25
2019-02-19T11:50:01.588Z,100721.80
2019-02-19T11:52:31.989Z,100719.88
2019-02-19T11:55:02.393Z,100704.50
2019-02-19T11:57:32.936Z,100712.03
2019-02-19T12:00:03.831Z,100710.32
2019-02-19T12:02:34.310Z,100705.59
2019-02-19T12:05:07.008Z,100706.37
2019-02-19T12:07:37.598Z,100699.78
2019-02-19T12:10:09.264Z,100701.34
2019-02-19T12:12:39.886Z,100694.44
2019-02-19T12:15:13.671Z,100697.34
2019-02-19T12:17:44.067Z,100700.47
2019-02-19T12:20:16.492Z,100702.97
2019-02-19T12:22:46.927Z,100702.12
2019-02-19T12:25:17.335Z,100703.05
2019-02-19T12:27:47.864Z,100704.84
2019-02-19T12:30:21.583Z,100708.45
2019-02-19T12:32:52.104Z,100699.12
2019-02-19T12:35:22.567Z,100705.86
2019-02-19T12:37:52.975Z,100703.87
2019-02-19T12:40:23.446Z,100711.36
2019-02-19T12:42:54.022Z,100719.89
2019-02-19T12:45:24.416Z,100710.59
2019-02-19T12:47:54.816Z,100702.45
2019-02-19T12:50:25.222Z,100710.30
2019-02-19T12:52:55.736Z,100706.80
2019-02-19T12:55:26.462Z,100710.84
2019-02-19T12:57:57.123Z,100716.81
2019-02-19T13:00:27.591Z,100719.09
2019-02-19T13:02:58.060Z,100704.81
2019-02-19T13:05:28.588Z,100721.97
2019-02-19T13:07:59.116Z,100718.08
2019-02-19T13:10:29.666Z,100715.47
2019-02-19T13:13:00.297Z,100713.50
2019-02-19T13:15:30.820Z,100714.74
2019-02-19T13:18:01.237Z,100720.41
2019-02-19T13:20:31.674Z,100714.41
2019-02-19T13:23:02.415Z,100726.41
2019-02-19T13:25:32.879Z,100730.01
2019-02-19T13:28:04.492Z,100732.74
2019-02-19T13:30:34.883Z,100734.11
2019-02-19T13:33:05.288Z,100732.03
2019-02-19T13:35:35.705Z,100731.05
2019-02-19T13:38:06.128Z,100727.34
2019-02-19T13:40:36.630Z,100729.41
2019-02-19T13:43:07.046Z,100733.25
2019-02-19T13:45:37.608Z,100731.89
2019-02-19T13:48:08.013Z,100733.76
2019-02-19T13:50:38.399Z,100739.45
2019-02-19T13:53:19.420Z,100738.59
2019-02-19T13:55:51.485Z,100737.37
2019-02-19T13:58:22.017Z,100741.30
2019-02-19T14:00:52.422Z,100748.80
2019-02-19T14:03:22.897Z,100747.06
2019-02-19T14:05:53.419Z,100748.58
2019-02-19T14:08:23.846Z,100748.58
2019-02-19T14:10:54.253Z,100742.22
2019-02-19T14:13:24.810Z,100740.63
2019-02-19T14:16:02.527Z,100740.97
2019-02-19T14:18:50.045Z,100740.72
2019-02-19T14:21:37.244Z,100749.87
2019-02-19T14:24:27.624Z,100747.84
2019-02-19T14:26:59.821Z,100754.36
2019-02-19T14:29:48.369Z,100757.68
2019-02-19T14:32:32.734Z,100758.27
2019-02-19T14:35:04.789Z,100758.63
2019-02-19T14:37:52.321Z,100760.13
2019-02-19T14:40:30.548Z,100756.63
2019-02-19T14:43:14.574Z,100761.73
2019-02-19T14:46:03.246Z,100770.27
2019-02-19T14:48:51.786Z,100765.55
2019-02-19T14:51:26.821Z,100771.25
2019-02-19T14:54:08.000Z,100766.33
2019-02-19T14:56:42.734Z,100760.77
2019-02-19T14:59:17.642Z,100759.06
2019-02-19T15:01:58.657Z,100759.94
2019-02-19T15:04:33.757Z,100754.30
2019-02-19T15:07:22.082Z,100751.16
2019-02-19T15:09:54.198Z,100744.15
2019-02-19T15:12:28.897Z,100738.02
2019-02-19T15:15:04.025Z,100740.83
2019-02-19T15:17:45.010Z,100732.27
2019-02-19T15:20:19.841Z,100734.71
2019-02-19T15:23:08.742Z,100730.86
2019-02-19T15:25:46.855Z,100739.38
2019-02-19T15:28:37.049Z,100757.36
2019-02-19T15:31:25.604Z,100749.41
2019-02-19T15:33:57.648Z,100757.37
2019-02-19T15:36:38.685Z,100753.59
2019-02-19T15:39:26.896Z,100754.64
2019-02-19T15:42:08.381Z,100743.05
2019-02-19T15:44:52.276Z,100740.68
2019-02-19T15:47:41.811Z,100740.36
2019-02-19T15:50:16.841Z,100733.59
2019-02-19T15:52:49.091Z,100744.89
2019-02-19T15:55:40.563Z,100745.61
2019-02-19T15:58:24.823Z,100751.58
2019-02-19T16:01:12.942Z,100751.46
2019-02-19T16:03:47.622Z,100754.98
2019-02-19T16:06:19.661Z,100752.09
2019-02-19T16:08:57.938Z,100750.69
2019-02-19T16:11:30.004Z,100745.07
2019-02-19T16:14:16.329Z,100753.64
2019-02-19T16:16:41.720Z,100754.84
2019-02-19T16:19:32.649Z,100763.73
2019-02-19T16:22:16.895Z,100761.30
2019-02-19T16:24:51.810Z,100764.08
2019-02-19T16:27:26.597Z,100769.89
2019-02-19T16:30:01.235Z,100764.55
2019-02-19T16:32:34.875Z,100775.22
2019-02-19T16:35:27.477Z,100774.24
2019-02-19T16:38:06.611Z,100783.20
2019-02-19T16:40:47.671Z,100792.31
2019-02-19T16:43:19.774Z,100798.88
2019-02-19T16:45:55.623Z,100800.86
2019-02-19T16:48:27.665Z,100795.31
2019-02-19T16:50:59.727Z,100801.33
2019-02-19T16:53:37.854Z,100800.75
2019-02-19T16:56:09.892Z,100797.28
2019-02-19T16:58:51.205Z,100802.73
2019-02-19T17:01:39.730Z,100800.65
2019-02-19T17:04:17.867Z,100803.37
2019-02-19T17:06:50.057Z,100806.22
2019-02-19T17:09:28.145Z,100802.51
2019-02-19T17:12:12.265Z,100807.05
2019-02-19T17:14:47.400Z,100809.45
2019-02-19T17:17:19.469Z,100811.50
2019-02-19T17:19:55.341Z,100813.16
2019-02-19T17:22:30.498Z,100816.80
2019-02-19T17:25:02.556Z,100812.72
2019-02-19T17:27:34.632Z,100806.75
2019-02-19T17:30:25.950Z,100809.77
2019-02-19T17:32:57.986Z,100817.86
2019-02-19T17:35:41.861Z,100815.28
2019-02-19T17:38:19.707Z,100821.96
2019-02-19T17:41:00.947Z,100823.67
2019-02-19T17:43:32.988Z,100820.59
2019-02-19T17:46:05.036Z,100820.28
2019-02-19T17:48:44.107Z,100816.98
2019-02-19T17:51:21.960Z,100819.70
2019-02-19T17:53:56.946Z,100824.59
2019-02-19T17:56:31.956Z,100825.83
2019-02-19T17:59:13.068Z,100817.73
2019-02-19T18:02:01.299Z,100830.37
2019-02-19T18:04:48.728Z,100825.16
2019-02-19T18:07:26.680Z,100828.17
2019-02-19T18:10:01.590Z,100829.81
2019-02-19T18:12:50.943Z,100822.11
2019-02-19T18:15:26.293Z,100822.55
2019-02-19T18:17:58.367Z,100813.03
2019-02-19T18:20:28.784Z,100815.75
2019-02-19T18:22:59.305Z,100816.66
2019-02-19T18:25:29.829Z,100814.32
2019-02-19T18:28:00.271Z,100811.38
2019-02-19T18:30:31.008Z,100814.99
2019-02-19T18:33:01.413Z,100813.92
2019-02-19T18:35:31.860Z,100813.80
2019-02-19T18:38:02.292Z,100806.09
2019-02-19T18:40:32.716Z,100803.90
2019-02-19T18:43:03.200Z,100808.50
2019-02-19T18:45:33.680Z,100813.64
2019-02-19T18:48:04.113Z,100814.99
2019-02-19T18:50:34.528Z,100810.47
2019-02-19T18:53:04.937Z,100807.14
2019-02-19T18:55:35.328Z,100814.84
2019-02-19T18:58:05.814Z,100814.48
2019-02-19T19:00:36.253Z,100803.61
2019-02-19T19:03:06.721Z,100806.09
2019-02-19T19:05:37.257Z,100807.30
2019-02-19T19:08:07.671Z,100803.61
2019-02-19T19:10:38.071Z,100809.51
2019-02-19T19:13:08.562Z,100811.54
2019-02-19T19:15:39.297Z,100811.23
2019-02-19T19:18:09.726Z,100805.27
2019-02-19T19:20:40.141Z,100815.25
2019-02-19T19:23:10.581Z,100817.91
2019-02-19T19:25:40.967Z,100803.86
2019-02-19T19:28:12.329Z,100813.05
2019-02-19T19:30:42.789Z,100821.38
2019-02-19T19:33:13.211Z,100818.04
2019-02-19T19:35:43.640Z,100817.30
2019-02-19T19:38:14.033Z,100820.63
2019-02-19T19:40:44.433Z,100814.19
2019-02-19T19:43:14.821Z,100826.52
2019-02-19T19:45:45.230Z,100814.58
2019-02-19T19:48:15.621Z,100819.56
2019-02-19T19:50:46.009Z,100813.06
2019-02-19T19:53:16.413Z,100819.11
